Time;durP1;ratioP1;P1;durP2;ratioP2;P2;SDS_P1;SDS_P2;PMS_P1;PMS_P2;Temp;Humidity;BMP_temperature;BMP_pressure;BME280_temperature;BME280_humidity;BME280_pressure;Samples;Min_cycle;Max_cycle;Signal;HPM_P1;HPM_P2
2021/07/25 00:00:39;;;;;;;20.15;12.73;;;;;;;18.86;100.00;97075.47;5112006;28;20632;-79
2021/07/25 00:03:07;;;;;;;21.10;13.38;;;;;;;18.77;100.00;97067.56;5124044;28;20717;-78
2021/07/25 00:05:34;;;;;;;20.20;13.98;;;;;;;18.75;100.00;97085.56;5126779;28;20047;-77
2021/07/25 00:08:03;;;;;;;20.30;12.90;;;;;;;18.78;100.00;97080.13;5126888;28;20516;-75
2021/07/25 00:10:30;;;;;;;21.50;13.43;;;;;;;18.63;100.00;97070.22;5124551;28;20076;-78
2021/07/25 00:12:56;;;;;;;26.60;13.05;;;;;;;18.57;100.00;97066.25;5111010;28;20040;-78
2021/07/25 00:15:23;;;;;;;18.95;13.20;;;;;;;18.56;100.00;97064.66;5109481;28;20096;-79
2021/07/25 00:17:50;;;;;;;23.20;12.73;;;;;;;18.58;100.00;97081.53;5091908;28;20047;-77
2021/07/25 00:20:16;;;;;;;20.92;12.55;;;;;;;18.51;100.00;97078.72;5091213;28;20638;-79
2021/07/25 00:22:43;;;;;;;19.58;13.10;;;;;;;18.49;100.00;97084.59;5109609;28;20100;-80
2021/07/25 00:25:19;;;;;;;20.88;12.93;;;;;;;18.39;100.00;97093.50;5109581;28;20104;-78
2021/07/25 00:27:54;;;;;;;21.20;13.50;;;;;;;18.32;100.00;97096.19;5109271;28;20043;-79
2021/07/25 00:30:25;;;;;;;17.77;11.77;;;;;;;18.33;100.00;97105.16;5108943;28;20055;-80
2021/07/25 00:32:54;;;;;;;18.85;12.45;;;;;;;18.32;100.00;97098.91;5091074;28;20067;-79
2021/07/25 00:35:24;;;;;;;22.42;12.38;;;;;;;18.36;100.00;97102.47;5095190;28;20051;-79
2021/07/25 00:37:52;;;;;;;22.33;12.02;;;;;;;18.39;100.00;97101.72;5113305;28;20405;-79
2021/07/25 00:40:38;;;;;;;20.75;13.25;;;;;;;18.48;100.00;97106.88;5112606;28;20067;-80
2021/07/25 00:43:04;;;;;;;21.83;11.70;;;;;;;18.48;100.00;97099.47;5113563;28;20039;-78
2021/07/25 00:45:31;;;;;;;21.35;10.95;;;;;;;18.49;100.00;97097.50;5094770;28;20100;-78
2021/07/25 00:47:58;;;;;;;21.60;12.63;;;;;;;18.49;100.00;97094.78;5112773;28;20097;-78
2021/07/25 00:50:25;;;;;;;17.05;11.20;;;;;;;18.46;100.00;97092.75;5112899;28;20096;-78
2021/07/25 00:52:52;;;;;;;20.25;11.27;;;;;;;18.49;100.00;97100.25;5112990;28;20112;-79
2021/07/25 00:55:20;;;;;;;16.17;11.27;;;;;;;18.48;100.00;97102.19;5113010;28;20054;-78
2021/07/25 00:57:47;;;;;;;19.38;12.13;;;;;;;18.53;100.00;97107.34;5113191;28;20039;-78
2021/07/25 01:00:16;;;;;;;18.65;12.45;;;;;;;18.58;100.00;97106.22;5112530;28;20512;-78
2021/07/25 01:03:04;;;;;;;18.77;12.45;;;;;;;18.58;100.00;97117.19;5112812;28;20039;-78
2021/07/25 01:05:59;;;;;;;20.20;11.95;;;;;;;18.60;100.00;97112.09;5095155;28;20108;-79
2021/07/25 01:08:28;;;;;;;20.42;12.32;;;;;;;18.60;100.00;97107.41;5094262;28;20043;-79
2021/07/25 01:10:55;;;;;;;19.42;13.43;;;;;;;18.58;100.00;97096.00;5112193;28;20096;-78
2021/07/25 01:13:27;;;;;;;20.13;14.10;;;;;;;18.50;100.00;97116.34;5112878;28;20047;-79
2021/07/25 01:15:57;;;;;;;22.17;13.10;;;;;;;18.46;100.00;97110.00;5111993;28;20046;-79
2021/07/25 01:18:24;;;;;;;19.92;13.30;;;;;;;18.39;100.00;97109.16;5094306;28;20031;-78
2021/07/25 01:20:51;;;;;;;21.60;12.95;;;;;;;18.32;100.00;97114.56;5114185;28;20667;-79
2021/07/25 01:23:18;;;;;;;18.30;11.85;;;;;;;18.22;100.00;97116.03;5112420;28;20039;-78
2021/07/25 01:25:48;;;;;;;22.17;12.63;;;;;;;18.18;100.00;97115.22;5093756;28;20047;-78
2021/07/25 01:28:26;;;;;;;24.42;12.52;;;;;;;18.08;100.00;97107.69;5094102;28;20066;-79
2021/07/25 01:30:55;;;;;;;21.35;13.32;;;;;;;18.11;100.00;97119.84;5112443;28;20059;-77
2021/07/25 01:33:31;;;;;;;17.60;12.82;;;;;;;18.02;100.00;97112.72;5112880;28;20055;-80
2021/07/25 01:35:59;;;;;;;20.92;13.05;;;;;;;17.95;100.00;97114.59;5112026;28;20040;-79
2021/07/25 01:38:26;;;;;;;22.17;13.13;;;;;;;17.86;100.00;97116.84;5095546;28;20047;-80
2021/07/25 01:41:02;;;;;;;19.48;12.30;;;;;;;17.76;100.00;97115.53;5094933;28;20147;-79
2021/07/25 01:43:30;;;;;;;18.73;11.85;;;;;;;17.68;100.00;97118.59;5112990;28;20043;-76
2021/07/25 01:45:57;;;;;;;22.08;13.25;;;;;;;17.58;100.00;97113.75;5093175;28;20062;-79
2021/07/25 01:48:24;;;;;;;23.27;11.65;;;;;;;17.56;100.00;97108.66;5095621;28;20039;-79
2021/07/25 01:50:51;;;;;;;18.75;12.48;;;;;;;17.53;100.00;97101.19;5088658;28;20047;-77
2021/07/25 01:53:20;;;;;;;17.67;11.95;;;;;;;17.54;100.00;97123.88;5104670;28;20040;-81
2021/07/25 01:55:46;;;;;;;21.67;12.07;;;;;;;17.44;100.00;97126.09;5103056;28;20043;-79
2021/07/25 01:58:13;;;;;;;18.33;11.82;;;;;;;17.35;100.00;97116.56;5103682;28;20039;-79
2021/07/25 02:00:39;;;;;;;22.88;12.15;;;;;;;17.31;100.00;97132.16;5099274;28;20540;-79
2021/07/25 02:03:06;;;;;;;22.15;12.50;;;;;;;17.23;100.00;97131.28;5091102;28;20040;-78
2021/07/25 02:05:36;;;;;;;19.58;11.68;;;;;;;17.14;100.00;97117.06;5091570;28;20136;-79
2021/07/25 02:08:04;;;;;;;17.88;11.73;;;;;;;17.09;100.00;97111.91;5091708;28;20051;-79
2021/07/25 02:10:31;;;;;;;19.40;11.48;;;;;;;17.09;100.00;97119.34;5091656;28;20036;-78
2021/07/25 02:12:58;;;;;;;16.55;11.40;;;;;;;17.09;100.00;97124.81;5073281;28;20055;-77
2021/07/25 02:15:24;;;;;;;20.98;12.02;;;;;;;17.12;100.00;97132.28;5090743;28;20044;-77
2021/07/25 02:17:51;;;;;;;15.77;11.20;;;;;;;17.11;100.00;97134.22;5090596;28;20040;-79
2021/07/25 02:20:22;;;;;;;19.27;11.32;;;;;;;17.10;100.00;97127.19;5090505;28;20051;-78
2021/07/25 02:22:49;;;;;;;19.08;12.02;;;;;;;16.92;100.00;97123.41;5090603;28;20040;-78
2021/07/25 02:25:15;;;;;;;22.85;11.90;;;;;;;16.82;100.00;97124.03;5091101;28;20057;-78
2021/07/25 02:27:42;;;;;;;17.55;11.35;;;;;;;16.79;100.00;97120.09;5091200;28;20084;-78
2021/07/25 02:30:09;;;;;;;15.75;10.75;;;;;;;16.73;100.00;97121.56;5072563;28;20044;-80
2021/07/25 02:32:35;;;;;;;16.20;10.75;;;;;;;16.75;100.00;97130.16;5091683;28;20052;-80
2021/07/25 02:35:02;;;;;;;16.77;11.38;;;;;;;16.67;100.00;97128.47;5093495;28;20284;-78
2021/07/25 02:37:31;;;;;;;15.77;11.15;;;;;;;16.53;100.00;97135.66;5096008;28;20471;-78
2021/07/25 02:39:57;;;;;;;20.77;11.50;;;;;;;16.42;100.00;97146.38;5094022;28;20044;-80
2021/07/25 02:42:27;;;;;;;20.15;11.30;;;;;;;16.34;100.00;97149.34;5094276;28;20105;-79
2021/07/25 02:44:53;;;;;;;17.67;12.18;;;;;;;16.29;100.00;97147.72;5096780;28;20085;-80
2021/07/25 02:47:20;;;;;;;22.15;12.27;;;;;;;16.34;100.00;97158.34;5100573;28;20097;-80
2021/07/25 02:49:46;;;;;;;20.45;11.70;;;;;;;16.32;100.00;97159.84;5100648;28;20040;-79
2021/07/25 02:52:13;;;;;;;19.02;11.95;;;;;;;16.41;100.00;97163.94;5104512;28;20078;-80
2021/07/25 02:54:39;;;;;;;19.67;12.27;;;;;;;16.55;100.00;97160.69;5108771;28;20101;-80
2021/07/25 02:57:06;;;;;;;16.88;11.45;;;;;;;16.63;100.00;97156.91;5092064;28;20090;-78
2021/07/25 02:59:32;;;;;;;22.02;11.52;;;;;;;16.72;100.00;97163.69;5089532;28;20028;-78
2021/07/25 03:01:59;;;;;;;16.88;10.93;;;;;;;16.80;100.00;97167.38;5075844;28;20120;-78
2021/07/25 03:04:26;;;;;;;19.25;11.20;;;;;;;16.80;100.00;97168.13;5092475;28;20040;-78
2021/07/25 03:06:52;;;;;;;19.20;11.52;;;;;;;16.81;100.00;97167.00;5091548;28;20048;-79
2021/07/25 03:09:19;;;;;;;18.67;11.23;;;;;;;16.88;100.00;97173.72;5073443;28;20049;-81
2021/07/25 03:11:46;;;;;;;18.80;12.13;;;;;;;16.95;100.00;97174.63;5072439;28;20139;-79
2021/07/25 03:14:12;;;;;;;20.55;11.20;;;;;;;16.99;100.00;97174.66;5090942;28;20052;-77
2021/07/25 03:16:39;;;;;;;17.92;11.30;;;;;;;17.04;100.00;97175.16;5090419;28;20040;-79
2021/07/25 03:19:06;;;;;;;18.58;10.88;;;;;;;17.13;100.00;97181.16;5091881;28;20487;-81
2021/07/25 03:21:32;;;;;;;23.10;12.00;;;;;;;17.15;100.00;97183.50;5071870;28;20422;-78
2021/07/25 03:23:59;;;;;;;22.08;11.57;;;;;;;17.11;100.00;97186.19;5094771;28;20036;-81
2021/07/25 03:26:26;;;;;;;18.02;11.20;;;;;;;17.17;100.00;97189.41;5104614;28;20039;-81
2021/07/25 03:28:52;;;;;;;16.80;11.18;;;;;;;17.20;100.00;97184.00;5092501;28;20648;-79
2021/07/25 03:31:19;;;;;;;14.95;11.38;;;;;;;17.26;100.00;97179.78;5111117;28;20098;-79
2021/07/25 03:33:45;;;;;;;18.45;10.95;;;;;;;17.29;100.00;97187.25;5111569;28;20461;-81
2021/07/25 03:36:12;;;;;;;17.45;11.35;;;;;;;17.29;100.00;97170.81;5112664;28;20058;-82
2021/07/25 03:38:39;;;;;;;19.10;11.90;;;;;;;17.37;100.00;97185.38;5112879;28;20044;-79
2021/07/25 03:41:05;;;;;;;18.48;11.68;;;;;;;17.39;100.00;97177.63;5105672;28;20036;-79
2021/07/25 03:43:32;;;;;;;18.92;11.23;;;;;;;17.45;100.00;97190.59;5094225;28;20055;-81
2021/07/25 03:46:00;;;;;;;21.00;11.77;;;;;;;17.49;100.00;97185.19;5074782;28;20064;-81
2021/07/25 03:48:51;;;;;;;25.25;12.13;;;;;;;17.53;100.00;97177.84;5080969;28;20035;-79
2021/07/25 03:51:17;;;;;;;17.00;11.45;;;;;;;17.49;100.00;97182.44;5055754;28;20105;-81
2021/07/25 03:53:44;;;;;;;19.23;11.88;;;;;;;17.55;100.00;97199.38;5091003;28;20044;-80
2021/07/25 03:56:10;;;;;;;18.90;12.48;;;;;;;17.57;100.00;97191.56;5089556;28;20044;-79
2021/07/25 03:58:37;;;;;;;18.90;12.18;;;;;;;17.63;100.00;97199.06;5091649;28;20047;-79
2021/07/25 04:01:03;;;;;;;18.27;11.50;;;;;;;17.66;100.00;97192.06;5099587;28;20050;-79
2021/07/25 04:03:30;;;;;;;20.35;12.38;;;;;;;17.67;100.00;97188.19;5082733;28;20036;-82
2021/07/25 04:05:58;;;;;;;22.10;12.38;;;;;;;17.70;100.00;97181.97;5088642;28;20408;-82
2021/07/25 04:08:24;;;;;;;21.27;12.75;;;;;;;17.79;100.00;97180.53;5083408;28;20032;-79
2021/07/25 04:10:51;;;;;;;20.15;12.15;;;;;;;17.79;100.00;97179.72;5101921;28;20046;-81
2021/07/25 04:13:18;;;;;;;18.45;12.65;;;;;;;17.82;100.00;97187.19;5092589;28;20055;-77
2021/07/25 04:15:45;;;;;;;15.32;11.43;;;;;;;17.82;100.00;97185.25;5074858;28;20043;-78
2021/07/25 04:18:13;;;;;;;19.45;12.27;;;;;;;17.85;100.00;97179.03;5101416;23;20056;-83
2021/07/25 04:20:40;;;;;;;18.10;12.82;;;;;;;17.92;100.00;97184.59;5063226;28;20060;-82
2021/07/25 04:23:08;;;;;;;18.20;12.55;;;;;;;17.98;100.00;97183.09;5065560;28;20125;-83
2021/07/25 04:25:34;;;;;;;16.52;11.98;;;;;;;18.05;100.00;97182.38;5065068;28;20595;-84
2021/07/25 04:28:03;;;;;;;20.02;12.82;;;;;;;18.12;100.00;97187.19;5071665;28;20047;-84
2021/07/25 04:30:32;;;;;;;15.98;11.57;;;;;;;18.17;100.00;97184.09;5085119;28;20078;-83
2021/07/25 04:33:03;;;;;;;17.45;12.18;;;;;;;18.24;100.00;97186.91;5086941;28;20140;-83
2021/07/25 04:35:32;;;;;;;18.75;12.27;;;;;;;18.27;100.00;97181.44;5086900;28;20417;-84
2021/07/25 04:38:00;;;;;;;19.85;11.35;;;;;;;18.35;100.00;97179.59;5084445;28;20405;-81
2021/07/25 04:40:26;;;;;;;19.35;10.80;;;;;;;18.54;100.00;97177.47;5078270;28;20585;-85
2021/07/25 04:42:55;;;;;;;19.00;10.63;;;;;;;18.97;100.00;97178.59;5080454;28;20040;-82
2021/07/25 04:45:48;;;;;;;21.27;10.45;;;;;;;19.43;100.00;97176.22;5086184;28;20044;-85
2021/07/25 04:48:38;;;;;;;16.00;10.48;;;;;;;19.66;100.00;97167.69;5086152;28;20063;-82
2021/07/25 04:51:06;;;;;;;15.13;9.52;;;;;;;19.81;100.00;97166.59;5080745;28;20083;-83
2021/07/25 04:53:41;;;;;;;20.08;10.38;;;;;;;19.85;100.00;97181.91;5078987;28;20031;-82
2021/07/25 04:56:11;;;;;;;14.63;9.23;;;;;;;19.85;100.00;97167.38;5085548;28;20445;-83
2021/07/25 04:58:51;;;;;;;15.60;10.32;;;;;;;19.77;100.00;97176.75;5087779;28;20055;-84
2021/07/25 05:01:24;;;;;;;16.08;9.77;;;;;;;19.82;100.00;97179.91;5090655;28;20051;-83
2021/07/25 05:03:52;;;;;;;18.45;9.93;;;;;;;19.88;100.00;97181.13;5091650;28;20048;-83
2021/07/25 05:06:22;;;;;;;16.92;9.60;;;;;;;20.01;100.00;97176.06;5091855;28;20040;-81
2021/07/25 05:08:49;;;;;;;16.92;10.25;;;;;;;20.08;100.00;97176.09;5094534;28;20036;-83
2021/07/25 05:11:21;;;;;;;15.23;9.68;;;;;;;20.09;100.00;97171.38;5091816;28;20074;-83
2021/07/25 05:13:54;;;;;;;16.25;9.77;;;;;;;20.13;100.00;97180.44;5087232;28;20047;-82
2021/07/25 05:16:26;;;;;;;15.00;9.85;;;;;;;20.20;100.00;97181.25;5086465;28;20040;-83
2021/07/25 05:19:40;;;;;;;18.25;9.18;;;;;;;20.29;100.00;97173.44;5085792;28;20089;-84
2021/07/25 05:22:26;;;;;;;16.42;9.70;;;;;;;20.50;100.00;97172.69;5065326;28;20173;-84
2021/07/25 05:24:53;;;;;;;15.23;9.23;;;;;;;20.63;100.00;97168.41;5084064;28;20400;-83
2021/07/25 05:27:23;;;;;;;14.10;9.07;;;;;;;20.76;100.00;97166.03;5088409;28;20478;-82
2021/07/25 05:29:51;;;;;;;14.20;8.65;;;;;;;20.94;100.00;97181.38;5090276;28;20470;-82
2021/07/25 05:32:19;;;;;;;12.38;8.43;;;;;;;21.11;100.00;97177.84;5088776;28;20477;-83
2021/07/25 05:34:46;;;;;;;14.43;8.60;;;;;;;21.27;100.00;97168.38;5073927;28;20048;-82
2021/07/25 05:37:13;;;;;;;14.23;8.77;;;;;;;21.37;100.00;97167.63;5069944;28;20064;-84
2021/07/25 05:39:42;;;;;;;19.38;8.57;;;;;;;21.30;100.00;97178.63;5067842;28;20148;-81
2021/07/25 05:42:09;;;;;;;13.68;9.00;;;;;;;21.23;100.00;97184.16;5069920;28;20136;-82
2021/07/25 05:44:35;;;;;;;13.45;8.25;;;;;;;21.08;100.00;97180.63;5069616;28;20070;-83
2021/07/25 05:47:04;;;;;;;15.50;8.43;;;;;;;20.98;100.00;97179.41;5067992;28;20095;-82
2021/07/25 05:49:31;;;;;;;14.57;8.52;;;;;;;20.94;100.00;97181.38;5067771;28;20114;-82
2021/07/25 05:52:00;;;;;;;16.55;8.93;;;;;;;20.88;100.00;97184.94;5069070;28;20040;-82
2021/07/25 05:54:27;;;;;;;15.27;9.20;;;;;;;20.80;100.00;97175.84;5071466;28;20494;-82
2021/07/25 05:56:53;;;;;;;17.02;9.30;;;;;;;20.77;100.00;97175.88;5087752;28;20078;-81
2021/07/25 05:59:19;;;;;;;17.85;9.15;;;;;;;20.86;100.00;97179.81;5087410;28;20040;-82
2021/07/25 06:01:46;;;;;;;13.43;8.18;;;;;;;20.88;100.00;97180.19;5086200;28;20429;-82
2021/07/25 06:04:13;;;;;;;13.98;8.32;;;;;;;21.07;100.00;97170.78;5083810;28;20421;-82
2021/07/25 06:06:39;;;;;;;11.85;8.68;;;;;;;21.18;100.00;97176.28;5086158;28;20075;-84
2021/07/25 06:09:07;;;;;;;12.00;8.07;;;;;;;21.27;100.00;97177.44;5085779;28;20161;-83
2021/07/25 06:11:34;;;;;;;12.30;7.90;;;;;;;21.39;100.00;97181.75;5088809;28;20459;-83
2021/07/25 06:14:03;;;;;;;14.48;7.32;;;;;;;21.43;100.00;97191.59;5088129;28;20448;-83
2021/07/25 06:16:30;;;;;;;12.13;7.63;;;;;;;21.44;100.00;97178.59;5087444;28;20044;-82
2021/07/25 06:18:56;;;;;;;15.85;7.60;;;;;;;21.56;100.00;97180.94;5089383;28;20447;-84
2021/07/25 06:21:27;;;;;;;12.05;7.68;;;;;;;21.64;100.00;97183.28;5090106;28;20058;-82
2021/07/25 06:23:55;;;;;;;11.32;7.40;;;;;;;21.61;100.00;97178.56;5067773;28;20048;-82
2021/07/25 06:26:23;;;;;;;13.02;7.90;;;;;;;21.65;100.00;97173.81;5071032;28;20064;-85
2021/07/25 06:28:50;;;;;;;10.45;7.30;;;;;;;21.77;100.00;97182.84;5071056;28;20132;-82
2021/07/25 06:31:16;;;;;;;11.23;7.13;;;;;;;21.73;100.00;97189.13;5071461;28;20388;-83
2021/07/25 06:33:43;;;;;;;11.77;7.47;;;;;;;21.78;100.00;97185.22;5070606;28;20039;-81
2021/07/25 06:36:12;;;;;;;15.00;7.25;;;;;;;21.89;100.00;97183.22;5089288;28;20036;-83
2021/07/25 06:38:41;;;;;;;13.70;7.45;;;;;;;21.94;100.00;97187.56;5088798;28;20048;-83
2021/07/25 06:41:07;;;;;;;12.63;7.70;;;;;;;21.88;100.00;97192.69;5093053;28;20044;-82
2021/07/25 06:43:34;;;;;;;9.15;6.68;;;;;;;21.97;100.00;97195.78;5087129;28;20143;-83
2021/07/25 06:46:01;;;;;;;11.32;7.32;;;;;;;22.01;100.00;97190.28;5070548;28;20068;-83
2021/07/25 06:48:29;;;;;;;10.73;7.35;;;;;;;22.07;100.00;97197.72;5053515;28;20048;-83
2021/07/25 06:50:59;;;;;;;11.45;6.68;;;;;;;22.09;100.00;97200.84;5069804;28;20127;-83
2021/07/25 06:53:28;;;;;;;11.75;6.85;;;;;;;22.28;100.00;97194.84;5071035;28;20121;-82
2021/07/25 06:55:57;;;;;;;9.40;6.63;;;;;;;22.33;100.00;97193.66;5070278;28;20465;-83
2021/07/25 06:58:23;;;;;;;10.77;6.50;;;;;;;22.50;100.00;97195.53;5052639;28;20047;-82
2021/07/25 07:00:50;;;;;;;11.55;7.15;;;;;;;22.43;100.00;97192.78;5088616;28;20050;-82
2021/07/25 07:03:19;;;;;;;14.52;7.43;;;;;;;22.51;100.00;97186.06;5068618;28;20040;-83
2021/07/25 07:05:46;;;;;;;9.38;6.63;;;;;;;22.59;100.00;97179.31;5069578;28;20048;-83
2021/07/25 07:08:14;;;;;;;10.77;6.32;;;;;;;22.72;100.00;97179.63;5087084;28;20258;-84
2021/07/25 07:10:42;;;;;;;9.85;6.40;;;;;;;22.76;100.00;97183.94;5052499;28;20102;-83
2021/07/25 07:13:13;;;;;;;11.50;6.57;;;;;;;22.91;100.00;97181.88;5068768;28;20478;-83
2021/07/25 07:15:43;;;;;;;10.95;6.43;;;;;;;23.09;100.00;97185.28;5087954;28;20036;-86
2021/07/25 07:18:10;;;;;;;11.32;6.50;;;;;;;23.18;100.00;97180.06;5086922;28;20075;-84
2021/07/25 07:20:39;;;;;;;11.35;7.20;;;;;;;23.41;100.00;97185.00;5087903;28;20066;-82
2021/07/25 07:23:08;;;;;;;7.97;5.97;;;;;;;23.55;100.00;97190.38;5069101;28;20111;-84
2021/07/25 07:25:47;;;;;;;10.05;5.90;;;;;;;23.69;100.00;97181.16;5069734;28;20056;-82
2021/07/25 07:28:15;;;;;;;12.02;5.70;;;;;;;23.80;100.00;97187.34;5069334;28;20036;-84
2021/07/25 07:30:43;;;;;;;11.23;5.88;;;;;;;24.01;100.00;97178.81;5088977;28;20202;-83
2021/07/25 07:33:12;;;;;;;9.55;6.10;;;;;;;24.04;100.00;97189.03;5087159;28;20493;-83
2021/07/25 07:35:40;;;;;;;9.98;5.93;;;;;;;23.94;100.00;97176.91;5087407;28;20048;-82
2021/07/25 07:38:07;;;;;;;8.10;5.95;;;;;;;24.07;100.00;97174.38;5069485;28;20085;-84
2021/07/25 07:40:35;;;;;;;7.82;6.05;;;;;;;24.18;100.00;97169.53;5087839;28;20044;-84
2021/07/25 07:43:03;;;;;;;9.57;6.07;;;;;;;24.38;100.00;97175.97;5085768;28;20154;-84
2021/07/25 07:45:33;;;;;;;11.50;6.30;;;;;;;24.12;100.00;97165.66;5086726;28;20104;-83
2021/07/25 07:48:00;;;;;;;8.13;5.85;;;;;;;24.21;100.00;97173.47;5086856;28;20048;-83
2021/07/25 07:50:27;;;;;;;11.30;7.05;;;;;;;24.18;100.00;97175.06;5086784;28;20086;-81
2021/07/25 07:52:54;;;;;;;11.35;6.55;;;;;;;24.19;100.00;97176.63;5051263;28;20132;-83
2021/07/25 07:55:21;;;;;;;10.18;6.72;;;;;;;24.38;100.00;97166.91;5086563;28;20040;-84
2021/07/25 07:57:47;;;;;;;11.88;6.85;;;;;;;24.72;100.00;97176.66;5088539;28;20385;-82
2021/07/25 08:00:14;;;;;;;13.93;6.10;;;;;;;24.78;100.00;97179.75;5072568;28;20486;-82
2021/07/25 08:02:53;;;;;;;10.27;6.30;;;;;;;24.88;100.00;97170.50;5054357;28;20047;-83
2021/07/25 08:05:20;;;;;;;12.23;6.75;;;;;;;25.35;100.00;97182.38;5069325;28;20532;-83
2021/07/25 08:07:48;;;;;;;12.38;6.32;;;;;;;25.74;100.00;97162.28;5068812;28;20044;-84
2021/07/25 08:10:15;;;;;;;12.05;6.53;;;;;;;25.69;100.00;97180.19;5069137;28;20118;-84
2021/07/25 08:12:42;;;;;;;12.15;6.72;;;;;;;26.04;100.00;97170.41;5068160;28;20062;-83
2021/07/25 08:15:09;;;;;;;10.73;6.50;;;;;;;25.92;100.00;97171.81;5067358;28;20048;-84
2021/07/25 08:17:38;;;;;;;10.00;6.28;;;;;;;25.97;100.00;97168.53;5087415;28;20472;-81
2021/07/25 08:20:06;;;;;;;9.32;5.88;;;;;;;26.09;100.00;97172.69;5051889;28;20044;-82
2021/07/25 08:22:35;;;;;;;9.00;6.00;;;;;;;26.01;100.00;97163.69;5086588;28;20044;-82
2021/07/25 08:25:02;;;;;;;8.88;5.97;;;;;;;25.92;100.00;97177.38;5086619;28;20044;-81
2021/07/25 08:27:31;;;;;;;7.78;5.63;;;;;;;26.10;100.00;97173.44;5051420;28;20508;-82
2021/07/25 08:29:57;;;;;;;8.90;5.70;;;;;;;26.28;100.00;97173.88;5067710;28;20104;-84
2021/07/25 08:32:24;;;;;;;9.70;6.00;;;;;;;26.22;100.00;97178.38;5068534;28;20102;-84
2021/07/25 08:34:50;;;;;;;10.13;5.70;;;;;;;26.60;100.00;97171.19;5087050;28;20051;-81
2021/07/25 08:37:17;;;;;;;8.43;5.78;;;;;;;26.99;100.00;97182.19;5068380;28;20043;-83
2021/07/25 08:39:45;;;;;;;7.95;6.10;;;;;;;27.22;100.00;97178.47;5068443;28;20490;-82
2021/07/25 08:42:15;;;;;;;11.05;5.60;;;;;;;27.16;100.00;97171.84;5086601;28;20520;-80
2021/07/25 08:44:53;;;;;;;7.57;5.10;;;;;;;26.86;100.00;97177.75;5086035;28;20054;-82
2021/07/25 08:47:26;;;;;;;11.30;6.00;;;;;;;26.46;100.00;97188.94;5068242;28;20131;-83
2021/07/25 08:50:09;;;;;;;8.82;5.38;;;;;;;26.22;100.00;97187.47;5068059;28;20143;-83
2021/07/25 08:52:37;;;;;;;7.97;5.43;;;;;;;26.59;100.00;97198.16;5086184;28;20497;-81
2021/07/25 08:55:13;;;;;;;9.45;5.35;;;;;;;26.99;100.00;97201.66;5070303;28;20139;-82
2021/07/25 08:57:41;;;;;;;;;;;;;;;27.09;100.00;97195.06;5056081;28;20044;-83
2021/07/25 09:00:12;;;;;;;9.65;5.47;;;;;;;26.80;100.00;97196.16;5071232;28;20023;-84
2021/07/25 09:02:39;;;;;;;11.95;5.70;;;;;;;26.66;100.00;97191.66;5089973;28;20089;-84
2021/07/25 09:05:07;;;;;;;8.35;5.47;;;;;;;26.85;100.00;97185.31;5071695;28;20044;-82
2021/07/25 09:07:34;;;;;;;8.07;5.32;;;;;;;27.46;100.00;97192.97;5072559;28;20048;-84
2021/07/25 09:10:05;;;;;;;8.40;5.03;;;;;;;27.78;100.00;97190.91;5071463;28;20120;-84
2021/07/25 09:12:33;;;;;;;6.85;5.05;;;;;;;28.76;100.00;97180.13;5090001;28;20116;-85
2021/07/25 09:15:05;;;;;;;7.72;5.15;;;;;;;29.35;100.00;97182.97;5070942;28;20474;-84
2021/07/25 09:17:32;;;;;;;8.98;4.68;;;;;;;29.27;100.00;97195.59;5088637;28;20068;-85
2021/07/25 09:20:33;;;;;;;9.18;4.95;;;;;;;29.33;100.00;97187.44;5070787;28;20040;-84
2021/07/25 09:23:07;;;;;;;6.13;4.43;;;;;;;28.67;100.00;97191.16;5088490;28;20051;-82
2021/07/25 09:25:38;;;;;;;6.45;4.38;;;;;;;28.13;100.00;97182.81;5071081;28;20059;-83
2021/07/25 09:28:13;;;;;;;6.88;4.88;;;;;;;27.90;100.00;97189.38;5071702;28;20047;-83
2021/07/25 09:30:39;;;;;;;10.27;4.60;;;;;;;28.11;100.00;97179.66;5070990;28;20036;-84
2021/07/25 09:33:27;;;;;;;5.47;4.28;;;;;;;28.72;100.00;97179.47;5071059;28;20044;-86
2021/07/25 09:36:02;;;;;;;7.95;5.20;;;;;;;28.84;100.00;97179.47;5070805;28;20409;-84
2021/07/25 09:38:30;;;;;;;7.05;4.82;;;;;;;29.03;96.89;97186.81;5070443;28;20051;-83
2021/07/25 09:41:00;;;;;;;7.90;4.90;;;;;;;29.50;100.00;97191.66;5071526;28;20491;-87
2021/07/25 09:43:27;;;;;;;6.45;4.15;;;;;;;29.44;77.65;97185.88;5088917;28;20048;-83
2021/07/25 09:45:58;;;;;;;6.10;4.05;;;;;;;28.42;98.09;97186.31;5089424;28;20401;-84
2021/07/25 09:48:33;;;;;;;6.25;4.10;;;;;;;28.49;93.20;97183.31;5070803;28;20040;-83
2021/07/25 09:51:02;;;;;;;6.35;4.78;;;;;;;27.55;100.00;97173.66;5089294;28;20040;-85
2021/07/25 09:53:48;;;;;;;7.10;4.28;;;;;;;27.88;100.00;97177.91;5088326;28;20490;-83
2021/07/25 09:56:18;;;;;;;6.00;3.90;;;;;;;27.81;100.00;97178.88;5088962;28;20063;-84
2021/07/25 09:58:48;;;;;;;6.30;4.28;;;;;;;27.40;100.00;97176.03;5095089;28;20063;-86
2021/07/25 10:01:33;;;;;;;7.70;4.53;;;;;;;27.90;99.22;97178.22;5076218;28;20036;-85
2021/07/25 10:04:21;;;;;;;5.45;3.53;;;;;;;28.63;96.60;97171.75;5091466;28;20143;-86
2021/07/25 10:06:50;;;;;;;6.72;4.03;;;;;;;30.33;67.98;97163.16;5073064;28;20513;-84
2021/07/25 10:09:19;;;;;;;5.63;4.00;;;;;;;30.13;64.71;97152.31;5070207;28;20040;-85
2021/07/25 10:12:03;;;;;;;5.88;3.90;;;;;;;30.27;78.89;97167.78;5091240;28;20048;-84
2021/07/25 10:14:35;;;;;;;5.70;4.18;;;;;;;30.38;69.14;97157.00;5091380;28;20044;-83
2021/07/25 10:17:03;;;;;;;6.60;4.70;;;;;;;30.02;73.91;97149.94;5056012;28;20498;-84
2021/07/25 10:19:42;;;;;;;9.55;4.68;;;;;;;30.06;80.93;97155.38;5070575;23;20060;-84
2021/07/25 10:22:13;;;;;;;9.30;5.00;;;;;;;30.83;77.09;97146.03;5054041;28;20119;-84
2021/07/25 10:24:43;;;;;;;8.10;4.88;;;;;;;30.88;73.56;97153.81;5054544;28;20572;-84
2021/07/25 10:27:10;;;;;;;9.35;4.70;;;;;;;30.74;61.94;97163.53;5055689;28;20047;-84
2021/07/25 10:29:40;;;;;;;6.32;5.00;;;;;;;30.80;65.77;97153.31;5069430;28;20052;-84
2021/07/25 10:32:10;;;;;;;8.77;5.05;;;;;;;31.00;71.03;97149.38;5073573;28;20044;-84
2021/07/25 10:34:38;;;;;;;7.85;4.60;;;;;;;32.69;73.00;97152.31;5073699;28;20083;-84
2021/07/25 10:37:05;;;;;;;10.27;5.00;;;;;;;32.15;64.43;97150.41;5076371;28;20044;-84
2021/07/25 10:39:33;;;;;;;8.60;5.38;;;;;;;32.55;60.09;97148.94;5073893;28;20082;-85
2021/07/25 10:42:02;;;;;;;9.25;5.03;;;;;;;32.68;55.77;97151.53;5055789;28;20510;-83
2021/07/25 10:44:29;;;;;;;9.80;4.97;;;;;;;33.35;53.61;97153.09;5072240;28;20063;-84
2021/07/25 10:47:18;;;;;;;11.10;5.28;;;;;;;33.83;50.90;97151.81;5073112;28;20047;-83
2021/07/25 10:49:55;;;;;;;8.48;5.13;;;;;;;35.57;43.59;97150.09;5074851;28;20068;-84
2021/07/25 10:52:22;;;;;;;9.25;4.70;;;;;;;35.70;44.34;97146.13;5079225;28;20052;-85
2021/07/25 10:54:59;;;;;;;6.20;4.95;;;;;;;36.97;38.71;97144.59;5072954;28;20159;-85
2021/07/25 10:58:00;;;;;;;5.60;4.38;;;;;;;36.06;38.83;97142.72;5073339;28;20116;-85
2021/07/25 11:00:52;;;;;;;6.47;4.50;;;;;;;36.23;40.17;97136.00;5072391;28;20045;-85
2021/07/25 11:03:25;;;;;;;5.00;4.30;;;;;;;35.56;39.35;97145.75;5075409;28;20361;-86
2021/07/25 11:06:15;;;;;;;6.35;4.10;;;;;;;36.14;38.13;97136.16;5075063;28;20119;-84
2021/07/25 11:08:51;;;;;;;5.65;4.15;;;;;;;35.36;39.98;97125.22;5079401;28;20541;-85
2021/07/25 11:11:45;;;;;;;5.15;4.05;;;;;;;36.23;38.83;97138.03;5074397;28;20074;-85
2021/07/25 11:14:54;;;;;;;7.45;4.47;;;;;;;38.60;35.29;97142.66;5089702;28;20101;-85
2021/07/25 11:17:45;;;;;;;9.02;4.60;;;;;;;37.47;35.20;97133.59;5056012;28;20098;-85
2021/07/25 11:20:33;;;;;;;7.15;4.25;;;;;;;35.99;39.30;97131.88;5071918;28;20057;-86
2021/07/25 11:23:01;;;;;;;7.90;4.30;;;;;;;34.82;40.80;97124.69;5072809;28;20233;-85
2021/07/25 11:25:32;;;;;;;7.03;4.80;;;;;;;35.79;41.32;97134.72;5071707;28;20530;-85
2021/07/25 11:27:59;;;;;;;9.43;4.47;;;;;;;35.43;39.14;97138.88;5073263;28;20086;-86
2021/07/25 11:30:47;;;;;;;7.90;4.78;;;;;;;35.61;37.67;97133.75;5070343;28;20051;-86